Time;durP1;ratioP1;P1;durP2;ratioP2;P2;SDS_P1;SDS_P2;PMS_P1;PMS_P2;Temp;Humidity;BMP_temperature;BMP_pressure;BME280_temperature;BME280_humidity;BME280_pressure;Samples;Min_cycle;Max_cycle;Signal;HPM_P1;HPM_P2
2022/04/22 00:01:28;;;;;;;2.83;1.60;;;14.70;99.10;;;;;;4852501;29;20469;-66
2022/04/22 00:03:59;;;;;;;1.60;1.50;;;14.90;98.80;;;;;;4852248;29;20598;-66
2022/04/22 00:06:30;;;;;;;1.40;1.30;;;14.80;99.20;;;;;;4850148;29;20500;-66
2022/04/22 00:09:02;;;;;;;2.60;1.40;;;14.80;99.10;;;;;;4844472;29;20587;-66
2022/04/22 00:11:34;;;;;;;1.20;1.20;;;14.80;98.90;;;;;;4851793;29;20601;-67
2022/04/22 00:14:09;;;;;;;1.87;1.77;;;14.80;99.10;;;;;;4849995;29;20462;-66
2022/04/22 00:16:40;;;;;;;1.90;1.63;;;14.80;99.20;;;;;;4851972;29;20504;-66
2022/04/22 00:19:11;;;;;;;3.47;1.27;;;15.00;98.20;;;;;;4844718;29;20462;-67
2022/04/22 00:21:42;;;;;;;1.40;1.30;;;15.10;99.50;;;;;;4839349;29;20879;-66
2022/04/22 00:24:13;;;;;;;1.67;1.57;;;15.20;98.60;;;;;;4847187;29;20477;-66
2022/04/22 00:26:45;;;;;;;1.70;1.40;;;15.30;98.70;;;;;;4847752;29;20600;-66
2022/04/22 00:29:16;;;;;;;1.70;1.60;;;15.20;98.90;;;;;;4843263;29;20466;-65
2022/04/22 00:31:47;;;;;;;1.93;1.57;;;15.00;98.50;;;;;;4844978;29;20477;-65
2022/04/22 00:34:17;;;;;;;1.40;1.30;;;15.00;99.10;;;;;;4849929;29;20562;-65
2022/04/22 00:36:49;;;;;;;2.17;1.50;;;15.10;98.20;;;;;;4849398;29;20821;-66
2022/04/22 00:39:20;;;;;;;2.17;1.60;;;15.20;97.30;;;;;;4840902;29;20554;-64
2022/04/22 00:41:52;;;;;;;2.83;1.53;;;15.10;98.40;;;;;;4841562;29;20466;-66
2022/04/22 00:44:23;;;;;;;2.07;1.70;;;15.00;96.70;;;;;;4838912;29;20493;-64
2022/04/22 00:46:54;;;;;;;1.87;1.27;;;14.90;97.00;;;;;;4840305;29;20498;-63
2022/04/22 00:49:24;;;;;;;1.93;1.77;;;14.90;95.60;;;;;;4849369;29;20554;-65
2022/04/22 00:51:58;;;;;;;2.10;2.00;;;14.70;97.10;;;;;;4841619;29;20527;-64
2022/04/22 00:54:31;;;;;;;1.33;1.20;;;14.50;97.60;;;;;;4841587;29;20483;-64
2022/04/22 00:57:04;;;;;;;3.43;1.60;;;14.60;97.90;;;;;;4841183;29;20477;-64
2022/04/22 00:59:37;;;;;;;3.20;1.43;;;14.60;98.20;;;;;;4849551;29;20492;-64
2022/04/22 01:02:07;;;;;;;4.20;2.13;;;14.70;96.30;;;;;;4843314;29;20464;-64
2022/04/22 01:10:14;;;;;;;1.80;1.70;;;14.30;97.70;;;;;;4849131;29;20981;-64
2022/04/22 01:12:47;;;;;;;1.93;1.70;;;14.20;97.00;;;;;;4837731;29;20486;-67
2022/04/22 01:15:19;;;;;;;2.00;1.60;;;14.20;96.60;;;;;;4839050;29;20475;-67
2022/04/22 01:17:50;;;;;;;1.50;1.30;;;14.20;96.90;;;;;;4839430;29;20514;-65
2022/04/22 01:20:21;;;;;;;1.53;1.43;;;14.30;97.50;;;;;;4848021;29;20474;-66
2022/04/22 01:22:54;;;;;;;1.63;1.53;;;14.30;97.40;;;;;;4845525;29;20529;-65
2022/04/22 01:25:24;;;;;;;2.00;1.80;;;14.40;96.70;;;;;;4848949;29;20484;-68
2022/04/22 01:27:55;;;;;;;2.17;1.90;;;14.20;96.60;;;;;;4849244;29;20505;-67
2022/04/22 01:30:27;;;;;;;2.80;2.37;;;14.20;97.20;;;;;;4835722;29;20473;-66
2022/04/22 01:32:59;;;;;;;1.80;1.70;;;14.20;97.20;;;;;;4839009;29;20530;-66
2022/04/22 01:35:29;;;;;;;2.07;1.70;;;14.10;98.80;;;;;;4849952;29;20478;-66
2022/04/22 01:38:02;;;;;;;2.03;1.40;;;14.20;97.60;;;;;;4850284;29;20480;-69
2022/04/22 01:40:33;;;;;;;1.80;1.70;;;14.30;98.80;;;;;;4843445;29;20485;-67
2022/04/22 01:43:04;;;;;;;1.67;1.57;;;14.20;97.60;;;;;;4851437;29;20470;-65
2022/04/22 01:45:35;;;;;;;2.27;1.37;;;14.10;97.50;;;;;;4856202;29;20470;-66
2022/04/22 01:48:09;;;;;;;2.60;2.10;;;14.20;98.80;;;;;;4844707;29;20573;-65
2022/04/22 01:50:40;;;;;;;1.67;1.57;;;14.20;97.80;;;;;;4854695;29;20528;-65
2022/04/22 01:53:13;;;;;;;1.67;1.57;;;14.20;98.00;;;;;;4854265;29;20470;-64
2022/04/22 01:55:43;;;;;;;3.07;2.10;;;14.20;98.10;;;;;;4854579;29;20489;-65
2022/04/22 01:58:14;;;;;;;1.83;1.33;;;14.10;98.20;;;;;;4854771;29;20474;-65
2022/04/22 02:00:45;;;;;;;1.57;1.47;;;14.00;99.00;;;;;;4855412;29;20525;-66
2022/04/22 02:03:16;;;;;;;3.10;2.03;;;14.10;97.60;;;;;;4845695;29;20487;-65
2022/04/22 02:05:47;;;;;;;2.37;2.17;;;14.00;99.90;;;;;;4850471;29;20947;-66
2022/04/22 02:08:20;;;;;;;2.80;1.80;;;13.90;99.90;;;;;;4850988;29;20974;-66
2022/04/22 02:10:51;;;;;;;2.77;1.83;;;13.80;99.90;;;;;;4855299;29;20788;-65
2022/04/22 02:13:22;;;;;;;2.30;2.07;;;13.80;99.90;;;;;;4847224;29;20471;-64
2022/04/22 02:15:53;;;;;;;2.10;1.87;;;13.60;99.90;;;;;;4841044;29;20470;-64
2022/04/22 02:18:24;;;;;;;2.40;1.73;;;13.60;99.90;;;;;;4853612;29;20473;-64
2022/04/22 02:20:56;;;;;;;2.90;1.53;;;13.50;99.90;;;;;;4845771;29;20482;-64
2022/04/22 02:23:28;;;;;;;4.47;1.80;;;13.50;99.90;;;;;;4852926;29;20863;-65
2022/04/22 02:25:59;;;;;;;1.67;1.57;;;13.30;99.90;;;;;;4854116;29;20509;-64
2022/04/22 02:28:35;;;;;;;1.80;1.57;;;13.10;99.90;;;;;;4848100;29;20488;-65
2022/04/22 02:31:07;;;;;;;1.70;1.60;;;12.90;99.90;;;;;;4850604;29;20461;-65
2022/04/22 02:33:41;;;;;;;2.03;1.93;;;12.90;99.90;;;;;;4840835;29;20562;-65
2022/04/22 02:36:15;;;;;;;1.63;1.53;;;12.60;99.90;;;;;;4848880;29;20461;-65
2022/04/22 02:38:48;;;;;;;3.00;2.40;;;12.60;99.90;;;;;;4848618;29;20462;-65
2022/04/22 02:46:54;;;;;;;3.10;2.27;;;12.40;99.90;;;;;;4851127;29;20464;-66
2022/04/22 02:49:29;;;;;;;1.80;1.70;;;12.30;99.90;;;;;;4845100;29;20469;-64
2022/04/22 02:52:01;;;;;;;2.33;2.10;;;12.30;99.90;;;;;;4851612;29;20470;-65
2022/04/22 02:54:34;;;;;;;2.07;1.87;;;12.10;99.90;;;;;;4845693;29;20493;-64
2022/04/22 02:57:06;;;;;;;3.07;1.87;;;11.90;99.90;;;;;;4845832;29;20461;-64
2022/04/22 02:59:37;;;;;;;1.90;1.57;;;11.70;99.90;;;;;;4838440;29;20467;-64
2022/04/22 03:02:08;;;;;;;2.57;2.37;;;11.50;99.90;;;;;;4843825;29;20468;-65
2022/04/22 03:04:40;;;;;;;2.10;1.40;;;11.40;99.90;;;;;;4850028;29;20801;-65
2022/04/22 03:07:10;;;;;;;1.50;1.40;;;11.30;99.90;;;;;;4841114;29;20465;-65
2022/04/22 03:09:43;;;;;;;1.70;1.60;;;11.20;99.90;;;;;;4835361;29;20459;-64
2022/04/22 03:12:14;;;;;;;2.20;1.73;;;11.10;99.90;;;;;;4843105;29;20482;-64
2022/04/22 03:14:45;;;;;;;2.43;1.83;;;11.00;99.90;;;;;;4846393;29;20471;-64
2022/04/22 03:17:16;;;;;;;1.63;1.47;;;10.90;99.90;;;;;;4849932;29;20462;-65
2022/04/22 03:19:47;;;;;;;1.87;1.77;;;10.90;99.90;;;;;;4835887;29;20605;-64
2022/04/22 03:22:18;;;;;;;1.10;1.10;;;10.70;99.90;;;;;;4851914;29;20562;-64
2022/04/22 03:24:50;;;;;;;2.30;1.60;;;10.60;99.90;;;;;;4850237;29;20891;-64
2022/04/22 03:27:21;;;;;;;2.10;1.90;;;10.60;99.90;;;;;;4846763;29;20483;-64
2022/04/22 03:29:52;;;;;;;4.37;2.10;;;10.60;99.90;;;;;;4846708;29;20462;-65
2022/04/22 03:32:23;;;;;;;2.80;1.87;;;10.70;99.90;;;;;;4850620;29;20495;-65
2022/04/22 03:34:54;;;;;;;3.57;1.80;;;10.70;99.90;;;;;;4849496;29;20470;-64
2022/04/22 03:37:25;;;;;;;1.13;1.13;;;10.60;99.90;;;;;;4846165;29;21011;-65
2022/04/22 03:39:57;;;;;;;1.43;1.33;;;10.60;99.90;;;;;;4840006;29;20493;-65
2022/04/22 03:42:29;;;;;;;1.60;1.50;;;10.60;99.90;;;;;;4852405;29;20474;-65
2022/04/22 03:45:00;;;;;;;1.30;1.20;;;10.60;99.90;;;;;;4843436;29;20565;-64
2022/04/22 03:47:30;;;;;;;1.13;1.13;;;10.40;99.90;;;;;;4845158;29;20483;-64
2022/04/22 03:50:01;;;;;;;1.40;1.30;;;10.40;99.90;;;;;;4843964;29;20458;-65
2022/04/22 03:52:32;;;;;;;1.60;1.40;;;10.40;99.90;;;;;;4852036;29;20466;-65
2022/04/22 03:55:04;;;;;;;1.23;1.13;;;10.50;99.90;;;;;;4852280;29;20486;-65
2022/04/22 04:00:23;;;;;;;1.50;1.40;;;10.50;99.90;;;;;;4848984;29;20466;-66
2022/04/22 04:02:54;;;;;;;1.90;1.80;;;10.40;99.90;;;;;;4845078;29;20463;-66
2022/04/22 04:05:25;;;;;;;1.90;1.80;;;10.30;99.90;;;;;;4852272;29;20510;-66
2022/04/22 04:07:56;;;;;;;1.83;1.60;;;10.30;99.90;;;;;;4847932;29;20454;-65
2022/04/22 04:16:04;;;;;;;1.80;1.60;;;10.30;99.90;;;;;;4846571;29;20482;-64
2022/04/22 04:18:37;;;;;;;1.57;1.47;;;10.20;99.90;;;;;;4849247;29;20474;-65
2022/04/22 04:24:04;;;;;;;1.87;1.40;;;9.90;99.90;;;;;;4848030;29;20564;-64
2022/04/22 04:26:37;;;;;;;1.90;1.57;;;9.90;99.90;;;;;;4843988;29;20496;-65
2022/04/22 04:29:09;;;;;;;1.67;1.10;;;9.80;99.90;;;;;;4850411;29;20532;-65
2022/04/22 04:31:40;;;;;;;1.50;1.40;;;9.80;99.90;;;;;;4852382;29;20470;-65
2022/04/22 04:34:11;;;;;;;1.30;1.20;;;9.70;99.90;;;;;;4851169;29;20478;-65
2022/04/22 04:36:41;;;;;;;1.75;1.40;;;9.70;99.90;;;;;;4852638;29;20463;-64
2022/04/22 04:39:12;;;;;;;2.25;1.85;;;9.70;99.90;;;;;;4843914;29;20218;-64
2022/04/22 04:41:45;;;;;;;1.95;1.85;;;9.80;99.90;;;;;;4852491;29;20202;-64
2022/04/22 04:44:15;;;;;;;1.90;1.80;;;9.60;99.90;;;;;;4843521;29;20221;-64
2022/04/22 04:46:46;;;;;;;2.40;1.77;;;9.50;99.90;;;;;;4837688;29;20474;-64
2022/04/22 04:49:21;;;;;;;1.83;1.73;;;9.40;99.90;;;;;;4839140;29;20508;-64
2022/04/22 04:51:52;;;;;;;2.95;1.90;;;9.30;99.90;;;;;;4840987;29;20470;-64
2022/04/22 04:54:23;;;;;;;1.93;1.57;;;9.30;99.90;;;;;;4842889;29;20216;-64
2022/04/22 04:56:55;;;;;;;1.67;1.58;;;9.20;99.90;;;;;;4841419;29;20477;-64
2022/04/22 04:59:26;;;;;;;3.50;2.00;;;9.10;99.90;;;;;;4847738;29;20225;-64
2022/04/22 05:01:57;;;;;;;2.10;1.65;;;9.10;99.90;;;;;;4848596;29;20479;-64
2022/04/22 05:04:28;;;;;;;2.70;1.80;;;9.00;99.90;;;;;;4845116;29;20273;-64
2022/04/22 05:06:58;;;;;;;1.80;1.70;;;9.00;99.90;;;;;;4835933;29;20482;-63
2022/04/22 05:09:29;;;;;;;1.52;1.42;;;8.90;99.90;;;;;;4848333;29;20501;-64
2022/04/22 05:12:02;;;;;;;2.30;2.08;;;8.80;99.90;;;;;;4845956;29;20384;-64
2022/04/22 05:14:32;;;;;;;1.90;1.77;;;8.80;99.90;;;;;;4844929;29;20206;-64
2022/04/22 05:17:03;;;;;;;2.70;1.80;;;8.90;99.90;;;;;;4844305;29;20462;-64
2022/04/22 05:19:34;;;;;;;2.33;1.80;;;9.00;99.90;;;;;;4840868;29;20493;-64
2022/04/22 05:22:06;;;;;;;2.30;2.00;;;9.00;99.90;;;;;;4850542;29;20205;-64
2022/04/22 05:24:37;;;;;;;1.55;1.45;;;9.10;99.90;;;;;;4850066;29;20205;-64
2022/04/22 05:27:09;;;;;;;2.17;1.98;;;9.00;99.90;;;;;;4848034;29;20272;-64
2022/04/22 05:32:40;;;;;;;3.03;1.70;;;8.90;99.90;;;;;;4843314;29;20253;-64
2022/04/22 05:35:11;;;;;;;1.93;1.77;;;9.00;99.90;;;;;;4842505;29;20225;-64
2022/04/22 05:37:50;;;;;;;2.10;1.90;;;9.10;99.90;;;;;;4847444;29;20525;-64
2022/04/22 05:40:21;;;;;;;1.80;1.65;;;9.10;99.90;;;;;;4837715;29;20205;-64
2022/04/22 05:42:55;;;;;;;2.70;2.50;;;9.10;99.90;;;;;;4843044;29;20320;-64
2022/04/22 05:45:27;;;;;;;1.73;1.63;;;9.10;99.90;;;;;;4850442;29;20299;-64
2022/04/22 05:47:58;;;;;;;2.25;2.03;;;9.00;99.90;;;;;;4841294;29;20214;-64
2022/04/22 05:50:30;;;;;;;1.97;1.77;;;9.00;99.90;;;;;;4832998;29;20310;-64
2022/04/22 05:53:01;;;;;;;2.40;1.83;;;9.00;99.90;;;;;;4848189;29;20469;-64
2022/04/22 05:55:32;;;;;;;2.15;1.70;;;9.00;99.90;;;;;;4832648;29;20217;-64
2022/04/22 05:58:04;;;;;;;2.13;1.92;;;9.00;99.90;;;;;;4850753;29;20217;-64
2022/04/22 06:00:35;;;;;;;2.10;1.58;;;8.90;99.90;;;;;;4850131;29;20210;-64
2022/04/22 06:03:09;;;;;;;2.10;1.90;;;8.80;99.90;;;;;;4847855;29;20217;-64
2022/04/22 06:05:39;;;;;;;1.80;1.70;;;8.80;99.90;;;;;;4842887;29;20209;-64
2022/04/22 06:10:58;;;;;;;2.60;2.25;;;8.70;99.90;;;;;;4838822;29;20256;-64
2022/04/22 06:13:31;;;;;;;2.78;2.25;;;8.70;99.90;;;;;;4840278;29;20214;-64
2022/04/22 06:16:02;;;;;;;3.88;2.50;;;8.70;99.90;;;;;;4843816;29;20216;-64
2022/04/22 06:18:33;;;;;;;3.13;2.88;;;8.70;99.90;;;;;;4843728;29;20634;-64
2022/04/22 06:21:04;;;;;;;2.80;2.60;;;8.70;99.90;;;;;;4844892;29;20213;-64
2022/04/22 06:23:35;;;;;;;3.92;2.80;;;8.60;99.90;;;;;;4841558;29;20210;-64
2022/04/22 06:26:06;;;;;;;2.75;2.50;;;8.60;99.90;;;;;;4846597;29;20213;-64
2022/04/22 06:28:38;;;;;;;3.87;3.20;;;8.60;99.90;;;;;;4848505;29;20205;-64
2022/04/22 06:31:10;;;;;;;3.40;2.80;;;8.50;99.90;;;;;;4849243;29;20512;-64
2022/04/22 06:33:43;;;;;;;3.00;2.80;;;8.40;99.90;;;;;;4853917;29;20480;-64
2022/04/22 06:36:15;;;;;;;3.30;3.00;;;8.40;99.90;;;;;;4848652;29;20225;-64
2022/04/22 06:38:47;;;;;;;3.78;3.05;;;8.40;99.90;;;;;;4844791;29;20213;-64
2022/04/22 06:46:57;;;;;;;3.35;3.00;;;8.20;99.90;;;;;;4838334;29;20289;-64
2022/04/22 06:49:28;;;;;;;3.38;3.00;;;8.10;99.90;;;;;;4850166;29;20233;-64
2022/04/22 06:52:02;;;;;;;2.97;2.78;;;8.00;99.90;;;;;;4853038;29;20209;-64
2022/04/22 06:54:34;;;;;;;4.00;3.10;;;8.00;99.90;;;;;;4847446;29;20208;-64
2022/04/22 06:57:05;;;;;;;3.08;2.88;;;8.00;99.90;;;;;;4841498;29;20233;-64
2022/04/22 06:59:38;;;;;;;3.00;2.80;;;7.90;99.90;;;;;;4845107;29;20240;-64
2022/04/22 07:02:10;;;;;;;3.92;3.53;;;7.80;99.90;;;;;;4852319;29;20202;-64
2022/04/22 07:04:42;;;;;;;2.92;2.72;;;7.70;99.90;;;;;;4843942;29;20205;-64
2022/04/22 07:07:13;;;;;;;3.28;2.97;;;7.70;99.90;;;;;;4851350;29;20218;-64
2022/04/22 07:09:44;;;;;;;3.55;3.25;;;7.70;99.90;;;;;;4841293;29;20237;-64
2022/04/22 07:12:16;;;;;;;3.17;2.75;;;7.60;99.90;;;;;;4848027;29;20708;-65
2022/04/22 07:14:50;;;;;;;4.13;3.72;;;7.60;99.90;;;;;;4849193;29;20217;-64
2022/04/22 07:17:26;;;;;;;4.35;3.53;;;7.70;99.90;;;;;;4848435;29;20213;-64
2022/04/22 07:19:57;;;;;;;3.33;3.13;;;7.70;99.90;;;;;;4852792;29;20235;-64
2022/04/22 07:22:28;;;;;;;4.07;3.70;;;7.60;99.90;;;;;;4850417;29;20201;-64
2022/04/22 07:25:00;;;;;;;3.33;3.00;;;7.50;99.90;;;;;;4843904;29;20221;-64
2022/04/22 07:27:35;;;;;;;4.43;4.13;;;7.40;99.90;;;;;;4851200;29;20277;-64
2022/04/22 07:30:11;;;;;;;3.65;3.20;;;7.30;99.90;;;;;;4847800;29;20233;-64
2022/04/22 07:32:45;;;;;;;3.63;3.33;;;7.30;99.90;;;;;;4841493;29;20313;-63
2022/04/22 07:35:17;;;;;;;5.05;3.58;;;7.30;99.90;;;;;;4841440;29;20209;-64
2022/04/22 07:37:50;;;;;;;4.18;3.25;;;7.30;99.90;;;;;;4851605;29;20221;-64
2022/04/22 07:40:24;;;;;;;2.80;2.60;;;7.20;99.90;;;;;;4846049;29;20205;-64
2022/04/22 07:48:47;;;;;;;3.90;3.08;;;7.10;99.90;;;;;;4844305;29;20634;-64
2022/04/22 07:51:18;;;;;;;3.92;3.40;;;7.00;99.90;;;;;;4845199;29;20248;-65
2022/04/22 07:53:49;;;;;;;4.22;3.60;;;7.00;99.90;;;;;;4839034;29;20220;-64
2022/04/22 07:56:20;;;;;;;4.05;3.65;;;7.00;99.90;;;;;;4843176;29;20210;-64
2022/04/22 07:58:51;;;;;;;5.97;3.55;;;6.90;99.90;;;;;;4836392;29;20225;-64
2022/04/22 08:01:23;;;;;;;4.47;3.33;;;7.00;99.90;;;;;;4848854;29;20221;-64
2022/04/22 08:03:58;;;;;;;3.88;3.40;;;6.90;99.90;;;;;;4850367;29;20213;-63
2022/04/22 08:06:29;;;;;;;3.95;3.60;;;6.90;99.90;;;;;;4850643;29;20216;-63
2022/04/22 08:08:59;;;;;;;4.63;3.45;;;7.00;99.90;;;;;;4843309;29;20388;-64
2022/04/22 08:11:30;;;;;;;3.45;3.15;;;7.00;99.90;;;;;;4847997;29;20245;-64
2022/04/22 08:14:01;;;;;;;3.92;3.28;;;6.90;99.90;;;;;;4844662;29;20209;-64
2022/04/22 08:16:34;;;;;;;3.50;3.20;;;6.90;99.90;;;;;;4845260;29;20217;-64
2022/04/22 08:19:05;;;;;;;4.97;4.07;;;6.90;99.90;;;;;;4844542;29;20209;-64
2022/04/22 08:21:36;;;;;;;4.13;3.72;;;7.00;99.90;;;;;;4840534;29;20214;-64
2022/04/22 08:24:10;;;;;;;3.95;3.50;;;7.10;99.90;;;;;;4833814;29;20230;-64
2022/04/22 08:26:41;;;;;;;4.40;3.53;;;7.10;99.90;;;;;;4843045;29;20217;-64
2022/04/22 08:29:12;;;;;;;4.97;4.47;;;7.00;99.90;;;;;;4840105;29;20224;-64
2022/04/22 08:31:45;;;;;;;4.70;4.05;;;7.00;99.90;;;;;;4847158;29;20268;-64
2022/04/22 08:34:16;;;;;;;4.65;4.25;;;7.00;99.90;;;;;;4844429;29;20288;-64
2022/04/22 08:36:48;;;;;;;4.93;3.92;;;6.90;99.90;;;;;;4846815;29;20385;-65
2022/04/22 08:39:19;;;;;;;4.82;4.32;;;6.90;99.90;;;;;;4850458;29;20205;-64
2022/04/22 08:41:50;;;;;;;4.88;4.47;;;7.00;99.90;;;;;;4850832;29;20214;-64
2022/04/22 08:44:23;;;;;;;4.55;4.03;;;7.10;99.90;;;;;;4849891;29;20295;-64
2022/04/22 08:50:02;;;;;;;4.70;4.32;;;7.10;99.90;;;;;;4850595;29;20224;-64
2022/04/22 08:52:35;;;;;;;5.00;4.53;;;7.00;99.90;;;;;;4847919;29;20221;-64
2022/04/22 08:55:07;;;;;;;5.20;4.70;;;7.00;99.90;;;;;;4838889;29;20658;-64
2022/04/22 08:57:38;;;;;;;4.88;4.45;;;7.00;99.90;;;;;;4848884;29;20209;-64
2022/04/22 09:00:10;;;;;;;5.05;4.55;;;7.00;99.90;;;;;;4837403;29;20269;-64
2022/04/22 09:02:43;;;;;;;4.55;4.15;;;7.10;99.90;;;;;;4838674;29;20213;-64
2022/04/22 09:05:14;;;;;;;5.30;4.15;;;7.10;99.90;;;;;;4841414;29;20210;-65
2022/04/22 09:07:46;;;;;;;5.15;4.40;;;7.00;99.90;;;;;;4847690;29;20217;-64
2022/04/22 09:10:17;;;;;;;5.22;4.72;;;7.00;99.90;;;;;;4839000;29;20309;-65
2022/04/22 09:12:53;;;;;;;4.82;3.95;;;7.10;99.90;;;;;;4843644;29;20210;-64
2022/04/22 09:15:26;;;;;;;6.82;4.05;;;7.10;99.90;;;;;;4847453;29;20530;-65
2022/04/22 09:18:10;;;;;;;4.10;3.70;;;7.10;99.90;;;;;;4845025;29;20222;-65
2022/04/22 09:20:41;;;;;;;4.00;3.70;;;7.10;99.90;;;;;;4842945;29;20619;-65
2022/04/22 09:23:26;;;;;;;3.20;2.92;;;7.20;99.90;;;;;;4834657;29;20217;-65
2022/04/22 09:25:57;;;;;;;3.90;3.60;;;7.20;99.90;;;;;;4847443;29;20582;-64
2022/04/22 09:28:28;;;;;;;3.83;3.53;;;7.20;99.90;;;;;;4850535;29;20475;-65
2022/04/22 09:31:00;;;;;;;4.13;3.72;;;7.20;99.90;;;;;;4847150;29;20225;-65
2022/04/22 09:33:47;;;;;;;4.32;3.30;;;7.20;99.90;;;;;;4849922;29;20213;-65
2022/04/22 09:44:58;;;;;;;2.63;2.42;;;7.40;99.90;;;;;;4845766;29;20225;-64
2022/04/22 09:47:31;;;;;;;2.80;2.53;;;7.50;99.90;;;;;;4843153;29;20297;-65
2022/04/22 09:50:09;;;;;;;2.63;2.20;;;7.60;99.90;;;;;;4836358;29;20612;-65
2022/04/22 09:52:43;;;;;;;2.60;2.40;;;7.70;99.90;;;;;;4841655;29;20238;-66
2022/04/22 09:55:16;;;;;;;2.13;1.95;;;7.70;99.90;;;;;;4844571;29;20209;-65
2022/04/22 09:57:54;;;;;;;4.00;2.45;;;7.60;99.90;;;;;;4840465;29;20237;-65
2022/04/22 10:00:26;;;;;;;3.30;2.40;;;7.60;99.90;;;;;;4845657;29;20767;-65
2022/04/22 10:02:57;;;;;;;4.47;2.70;;;7.50;99.90;;;;;;4849056;29;20235;-64
2022/04/22 10:05:31;;;;;;;2.55;2.35;;;7.40;99.90;;;;;;4851917;29;20239;-64
2022/04/22 10:08:05;;;;;;;2.80;2.60;;;7.30;99.90;;;;;;4853540;29;20219;-64
2022/04/22 10:10:40;;;;;;;2.20;2.10;;;7.30;99.90;;;;;;4844493;29;20328;-65
2022/04/22 10:13:16;;;;;;;2.35;2.15;;;7.20;99.90;;;;;;4849857;29;20247;-65
2022/04/22 10:15:51;;;;;;;2.97;2.55;;;7.00;99.90;;;;;;4853339;29;20660;-65
2022/04/22 10:18:24;;;;;;;3.78;2.50;;;6.80;99.90;;;;;;4847310;29;20569;-65
2022/04/22 10:20:57;;;;;;;2.50;2.30;;;6.60;99.90;;;;;;4853556;29;20220;-64
2022/04/22 10:23:29;;;;;;;3.08;2.75;;;6.60;99.90;;;;;;4851843;29;20561;-65
2022/04/22 10:26:00;;;;;;;3.33;2.70;;;6.60;99.90;;;;;;4853250;29;20402;-64
2022/04/22 10:28:32;;;;;;;2.88;2.65;;;6.60;99.90;;;;;;4850777;29;20201;-64
2022/04/22 10:31:04;;;;;;;3.00;2.80;;;6.50;99.90;;;;;;4840349;29;20220;-64
2022/04/22 10:33:42;;;;;;;2.53;2.33;;;6.50;99.90;;;;;;4839381;29;20218;-64
2022/04/22 10:36:17;;;;;;;3.58;2.13;;;6.50;99.90;;;;;;4851156;29;20224;-64
2022/04/22 10:38:49;;;;;;;3.17;2.88;;;6.40;99.90;;;;;;4843792;29;20244;-64
2022/04/22 10:41:21;;;;;;;2.97;2.78;;;6.30;99.90;;;;;;4848327;29;20213;-65
2022/04/22 10:49:41;;;;;;;3.35;3.03;;;6.20;99.90;;;;;;4844556;29;20215;-64
2022/04/22 10:52:19;;;;;;;3.15;2.70;;;6.10;99.90;;;;;;4841236;29;20261;-64
2022/04/22 10:55:11;;;;;;;3.97;3.58;;;6.20;99.90;;;;;;4844947;29;20217;-64
2022/04/22 10:57:44;;;;;;;3.15;2.90;;;6.20;99.90;;;;;;4846770;29;20229;-64
2022/04/22 11:00:31;;;;;;;3.65;3.35;;;6.10;99.90;;;;;;4846009;29;20214;-64
2022/04/22 11:03:10;;;;;;;3.85;3.55;;;6.00;99.90;;;;;;4844852;29;20230;-64
2022/04/22 11:05:46;;;;;;;3.30;3.03;;;6.00;99.90;;;;;;4845365;29;20200;-64
2022/04/22 11:08:26;;;;;;;3.45;3.00;;;5.90;99.90;;;;;;4851562;29;20217;-64
2022/04/22 11:11:07;;;;;;;3.30;3.00;;;5.80;99.90;;;;;;4840586;29;20237;-64
2022/04/22 11:13:43;;;;;;;3.47;3.17;;;5.80;99.90;;;;;;4846860;29;20255;-64
2022/04/22 11:16:26;;;;;;;4.68;3.60;;;5.80;99.90;;;;;;4848758;29;20236;-64
2022/04/22 11:19:24;;;;;;;5.18;3.22;;;5.70;99.90;;;;;;4840079;29;20208;-64
2022/04/22 11:21:57;;;;;;;3.22;2.92;;;5.70;99.90;;;;;;4853322;29;20213;-64
2022/04/22 11:24:31;;;;;;;4.03;3.72;;;5.60;99.90;;;;;;4850246;29;20206;-64
2022/04/22 11:27:12;;;;;;;4.22;3.83;;;5.50;99.90;;;;;;4840076;29;20281;-65
2022/04/22 11:29:44;;;;;;;3.95;3.25;;;5.50;99.90;;;;;;4845688;29;20239;-64
2022/04/22 11:32:21;;;;;;;4.25;3.75;;;5.50;99.90;;;;;;4839809;29;20234;-64
2022/04/22 11:35:17;;;;;;;4.53;3.20;;;5.50;99.90;;;;;;4835683;29;20210;-65
2022/04/22 11:37:59;;;;;;;3.58;3.25;;;5.50;99.90;;;;;;4851323;29;20666;-64
2022/04/22 11:40:37;;;;;;;3.75;3.30;;;5.40;99.90;;;;;;4852246;29;20229;-65
2022/04/22 11:43:10;;;;;;;3.53;3.22;;;5.30;99.90;;;;;;4842395;29;20217;-64
2022/04/22 11:45:47;;;;;;;4.07;3.55;;;5.30;99.90;;;;;;4842498;29;20301;-64
2022/04/22 11:48:21;;;;;;;4.35;3.95;;;5.30;99.90;;;;;;4834849;29;20190;-65
2022/04/22 11:50:53;;;;;;;3.80;3.40;;;5.30;99.90;;;;;;4844681;29;20194;-64
2022/04/22 11:53:26;;;;;;;4.80;4.15;;;5.30;99.90;;;;;;4846042;29;20268;-64
2022/04/22 11:55:58;;;;;;;4.78;3.85;;;5.40;99.90;;;;;;4846124;29;20235;-64
2022/04/22 11:58:29;;;;;;;5.10;4.60;;;5.30;99.90;;;;;;4837449;29;20610;-64
2022/04/22 12:06:42;;;;;;;5.72;4.80;;;5.20;99.90;;;;;;4847308;29;20213;-64
2022/04/22 12:09:13;;;;;;;7.82;5.30;;;5.20;99.90;;;;;;4833957;29;20199;-65
2022/04/22 12:11:46;;;;;;;6.35;4.47;;;5.10;99.90;;;;;;4835131;29;20558;-64
2022/04/22 12:14:25;;;;;;;6.70;5.25;;;5.00;99.90;;;;;;4840687;29;20213;-63
2022/04/22 12:16:59;;;;;;;6.25;5.43;;;4.90;99.90;;;;;;4845577;29;20214;-64
2022/04/22 12:19:30;;;;;;;7.97;5.70;;;4.90;99.90;;;;;;4844447;29;20217;-64
2022/04/22 12:22:02;;;;;;;9.18;5.90;;;4.90;99.90;;;;;;4849895;29;20274;-64
2022/04/22 12:24:33;;;;;;;8.63;6.45;;;4.90;99.90;;;;;;4851417;29;20221;-63
2022/04/22 12:27:22;;;;;;;9.48;5.30;;;4.90;99.90;;;;;;4846459;29;20225;-63
2022/04/22 12:30:02;;;;;;;6.88;5.40;;;5.00;99.90;;;;;;4849776;29;20217;-63
2022/04/22 12:32:33;;;;;;;8.10;6.25;;;5.10;99.90;;;;;;4848645;29;20237;-64
2022/04/22 12:35:14;;;;;;;8.75;6.82;;;5.10;99.90;;;;;;4837772;29;20217;-64
2022/04/22 12:37:54;;;;;;;10.10;6.95;;;5.20;99.90;;;;;;4834581;29;20210;-64
2022/04/22 12:40:26;;;;;;;6.43;5.13;;;5.20;99.90;;;;;;4833704;29;20624;-64
2022/04/22 12:43:22;;;;;;;7.47;5.72;;;5.30;99.90;;;;;;4849595;29;20201;-64
2022/04/22 12:54:34;;;;;;;9.02;6.88;;;5.30;99.90;;;;;;4849397;29;20250;-64
2022/04/22 12:57:06;;;;;;;10.40;7.65;;;5.20;99.90;;;;;;4841551;29;20213;-64
2022/04/22 12:59:46;;;;;;;10.77;8.13;;;5.30;99.90;;;;;;4850233;29;20216;-64
2022/04/22 13:02:18;;;;;;;10.50;8.20;;;5.40;99.90;;;;;;4849815;29;20281;-64
2022/04/22 13:04:57;;;;;;;10.32;7.90;;;5.40;99.90;;;;;;4850607;29;20336;-64
2022/04/22 13:07:40;;;;;;;11.82;7.90;;;5.50;99.90;;;;;;4841220;29;20281;-65
2022/04/22 13:10:11;;;;;;;9.55;8.02;;;5.60;99.90;;;;;;4833341;29;20268;-64
2022/04/22 13:12:43;;;;;;;10.30;7.78;;;5.60;99.90;;;;;;4833692;29;20233;-64
2022/04/22 13:15:18;;;;;;;10.70;7.72;;;5.70;99.90;;;;;;4850430;29;20206;-64
2022/04/22 13:17:49;;;;;;;14.32;9.43;;;5.80;99.90;;;;;;4848300;29;20216;-64
2022/04/22 13:20:21;;;;;;;12.75;8.55;;;5.90;99.90;;;;;;4844005;29;20710;-64
2022/04/22 13:22:52;;;;;;;10.25;8.45;;;5.90;99.90;;;;;;4851482;29;20208;-65
2022/04/22 13:25:23;;;;;;;10.90;7.78;;;5.90;99.90;;;;;;4838024;29;20209;-65
2022/04/22 13:27:54;;;;;;;11.02;7.82;;;6.00;99.90;;;;;;4841346;29;20220;-64
2022/04/22 13:30:27;;;;;;;11.20;8.63;;;6.00;99.90;;;;;;4850028;29;20213;-65
2022/04/22 13:32:58;;;;;;;12.25;8.90;;;6.10;99.90;;;;;;4850581;29;20248;-64
2022/04/22 13:35:29;;;;;;;14.32;9.68;;;6.20;99.90;;;;;;4848976;29;20218;-64
2022/04/22 13:38:00;;;;;;;15.73;9.98;;;6.20;99.90;;;;;;4844141;29;20198;-64
2022/04/22 13:40:31;;;;;;;16.08;9.75;;;6.30;99.90;;;;;;4835306;29;20205;-64
2022/04/22 13:43:01;;;;;;;13.98;9.50;;;6.40;99.90;;;;;;4849481;29;20217;-64
2022/04/22 13:53:56;;;;;;;14.10;10.18;;;6.50;99.90;;;;;;4843882;29;20258;-64
2022/04/22 13:56:27;;;;;;;20.45;12.02;;;6.60;99.90;;;;;;4843035;29;20233;-65
2022/04/22 13:58:58;;;;;;;16.17;11.10;;;6.70;99.90;;;;;;4843252;29;20215;-64
2022/04/22 14:01:30;;;;;;;20.73;11.57;;;6.80;99.90;;;;;;4847391;29;20209;-64
2022/04/22 14:04:01;;;;;;;15.20;10.27;;;7.00;99.90;;;;;;4845921;29;20222;-64
2022/04/22 14:06:32;;;;;;;13.98;10.63;;;7.10;99.90;;;;;;4836168;29;20247;-64
2022/04/22 14:09:04;;;;;;;244.88;49.55;;;7.30;99.90;;;;;;4847985;29;20209;-67
2022/04/22 14:11:35;;;;;;;17.00;11.15;;;7.50;99.90;;;;;;4849666;29;20245;-67
2022/04/22 14:14:06;;;;;;;13.60;10.43;;;7.60;99.90;;;;;;4849835;29;20221;-68
2022/04/22 14:16:38;;;;;;;16.23;11.50;;;7.60;99.90;;;;;;4848511;29;20221;-68
2022/04/22 14:19:09;;;;;;;22.67;12.43;;;7.80;99.90;;;;;;4845989;29;20295;-66
2022/04/22 14:21:40;;;;;;;715.85;109.57;;;7.90;99.90;;;;;;4844466;29;20462;-66
2022/04/22 14:24:11;;;;;;;369.50;67.78;;;8.20;99.90;;;;;;4847195;29;20295;-66
2022/04/22 14:26:42;;;;;;;17.05;12.05;;;8.20;99.90;;;;;;4848889;29;20229;-67
2022/04/22 14:29:33;;;;;;;12.48;10.70;;;8.30;99.90;;;;;;4833744;29;20237;-67
2022/04/22 14:32:07;;;;;;;124.45;29.40;;;8.40;99.90;;;;;;4847086;29;20570;-66
2022/04/22 14:34:38;;;;;;;14.55;10.60;;;8.50;99.90;;;;;;4839065;29;20298;-65
2022/04/22 14:37:09;;;;;;;15.15;10.38;;;8.50;99.90;;;;;;4839998;29;20217;-65
2022/04/22 14:39:41;;;;;;;13.18;10.43;;;8.50;99.90;;;;;;4836126;29;20209;-67
2022/04/22 14:42:12;;;;;;;11.23;9.00;;;8.50;99.90;;;;;;4849568;29;20209;-67